sensor_id;sensor_type;location;lat;lon;timestamp;P1;durP1;ratioP1;P2;durP2;ratioP2
20725;SDS011;10524;48.132;8.518;2023-03-31T00:02:08;8.40;;;4.30;;
20725;SDS011;10524;48.132;8.518;2023-03-31T00:04:40;7.85;;;3.72;;
20725;SDS011;10524;48.132;8.518;2023-03-31T00:07:13;8.57;;;4.35;;
20725;SDS011;10524;48.132;8.518;2023-03-31T00:09:40;7.65;;;3.80;;
20725;SDS011;10524;48.132;8.518;2023-03-31T00:12:10;7.85;;;4.10;;
20725;SDS011;10524;48.132;8.518;2023-03-31T00:14:37;7.93;;;3.80;;
20725;SDS011;10524;48.132;8.518;2023-03-31T00:17:06;10.82;;;4.00;;
20725;SDS011;10524;48.132;8.518;2023-03-31T00:19:32;10.70;;;4.15;;
20725;SDS011;10524;48.132;8.518;2023-03-31T00:21:58;9.68;;;4.15;;
20725;SDS011;10524;48.132;8.518;2023-03-31T00:24:29;7.90;;;4.57;;
20725;SDS011;10524;48.132;8.518;2023-03-31T00:26:57;10.40;;;4.32;;
20725;SDS011;10524;48.132;8.518;2023-03-31T00:29:27;8.18;;;4.00;;
20725;SDS011;10524;48.132;8.518;2023-03-31T00:31:53;7.35;;;3.55;;
20725;SDS011;10524;48.132;8.518;2023-03-31T00:34:19;10.23;;;4.10;;
20725;SDS011;10524;48.132;8.518;2023-03-31T00:36:45;11.60;;;3.85;;
20725;SDS011;10524;48.132;8.518;2023-03-31T00:39:12;11.93;;;4.10;;
20725;SDS011;10524;48.132;8.518;2023-03-31T00:41:39;8.25;;;3.88;;
20725;SDS011;10524;48.132;8.518;2023-03-31T00:49:22;9.15;;;4.03;;
20725;SDS011;10524;48.132;8.518;2023-03-31T00:51:53;10.00;;;3.95;;
20725;SDS011;10524;48.132;8.518;2023-03-31T00:54:21;9.35;;;4.10;;
20725;SDS011;10524;48.132;8.518;2023-03-31T00:56:50;8.18;;;3.83;;
20725;SDS011;10524;48.132;8.518;2023-03-31T00:59:19;10.45;;;4.63;;
20725;SDS011;10524;48.132;8.518;2023-03-31T01:01:51;12.60;;;4.60;;
20725;SDS011;10524;48.132;8.518;2023-03-31T01:04:19;10.75;;;4.20;;
20725;SDS011;10524;48.132;8.518;2023-03-31T01:06:53;13.10;;;4.55;;
20725;SDS011;10524;48.132;8.518;2023-03-31T01:09:24;9.93;;;4.43;;
20725;SDS011;10524;48.132;8.518;2023-03-31T01:11:58;12.82;;;4.65;;
20725;SDS011;10524;48.132;8.518;2023-03-31T01:14:26;14.25;;;4.75;;
20725;SDS011;10524;48.132;8.518;2023-03-31T01:16:51;10.82;;;4.28;;
20725;SDS011;10524;48.132;8.518;2023-03-31T01:19:37;11.70;;;4.95;;
20725;SDS011;10524;48.132;8.518;2023-03-31T01:44:49;11.70;;;5.47;;
20725;SDS011;10524;48.132;8.518;2023-03-31T01:48:12;15.57;;;6.30;;
20725;SDS011;10524;48.132;8.518;2023-03-31T01:50:50;12.07;;;5.82;;
20725;SDS011;10524;48.132;8.518;2023-03-31T01:56:15;16.58;;;6.28;;
20725;SDS011;10524;48.132;8.518;2023-03-31T01:59:18;12.88;;;5.55;;
20725;SDS011;10524;48.132;8.518;2023-03-31T02:04:22;14.90;;;5.93;;
20725;SDS011;10524;48.132;8.518;2023-03-31T02:06:59;12.80;;;5.85;;
20725;SDS011;10524;48.132;8.518;2023-03-31T02:09:30;13.88;;;5.97;;
20725;SDS011;10524;48.132;8.518;2023-03-31T02:12:00;15.45;;;6.45;;
20725;SDS011;10524;48.132;8.518;2023-03-31T02:14:30;12.43;;;5.97;;
20725;SDS011;10524;48.132;8.518;2023-03-31T02:16:58;14.02;;;6.22;;
20725;SDS011;10524;48.132;8.518;2023-03-31T02:19:28;18.77;;;7.20;;
20725;SDS011;10524;48.132;8.518;2023-03-31T02:22:00;18.77;;;6.57;;
20725;SDS011;10524;48.132;8.518;2023-03-31T02:24:28;14.48;;;6.90;;
20725;SDS011;10524;48.132;8.518;2023-03-31T02:27:02;14.35;;;6.70;;
20725;SDS011;10524;48.132;8.518;2023-03-31T02:29:36;14.10;;;6.75;;
20725;SDS011;10524;48.132;8.518;2023-03-31T02:34:45;16.23;;;7.35;;
20725;SDS011;10524;48.132;8.518;2023-03-31T02:37:11;15.55;;;7.57;;
20725;SDS011;10524;48.132;8.518;2023-03-31T02:39:39;13.90;;;7.38;;
20725;SDS011;10524;48.132;8.518;2023-03-31T02:42:08;15.48;;;7.35;;
20725;SDS011;10524;48.132;8.518;2023-03-31T02:44:34;18.38;;;7.72;;
20725;SDS011;10524;48.132;8.518;2023-03-31T02:47:01;15.23;;;7.20;;
20725;SDS011;10524;48.132;8.518;2023-03-31T02:49:30;16.85;;;7.38;;
20725;SDS011;10524;48.132;8.518;2023-03-31T02:52:16;17.08;;;8.77;;
20725;SDS011;10524;48.132;8.518;2023-03-31T02:55:17;14.90;;;7.90;;
20725;SDS011;10524;48.132;8.518;2023-03-31T02:58:14;14.45;;;8.20;;
20725;SDS011;10524;48.132;8.518;2023-03-31T03:03:53;19.08;;;8.43;;
20725;SDS011;10524;48.132;8.518;2023-03-31T03:06:41;17.35;;;8.50;;
20725;SDS011;10524;48.132;8.518;2023-03-31T03:12:21;23.48;;;8.35;;
20725;SDS011;10524;48.132;8.518;2023-03-31T03:15:19;18.10;;;8.77;;
20725;SDS011;10524;48.132;8.518;2023-03-31T03:17:50;16.17;;;7.68;;
20725;SDS011;10524;48.132;8.518;2023-03-31T03:20:18;15.23;;;7.68;;
20725;SDS011;10524;48.132;8.518;2023-03-31T03:22:44;15.45;;;7.28;;
20725;SDS011;10524;48.132;8.518;2023-03-31T03:25:10;13.70;;;7.68;;
20725;SDS011;10524;48.132;8.518;2023-03-31T03:27:38;17.23;;;6.82;;
20725;SDS011;10524;48.132;8.518;2023-03-31T03:30:05;14.73;;;6.38;;
20725;SDS011;10524;48.132;8.518;2023-03-31T03:32:34;12.60;;;6.68;;
20725;SDS011;10524;48.132;8.518;2023-03-31T03:35:00;17.20;;;7.10;;
20725;SDS011;10524;48.132;8.518;2023-03-31T03:37:26;13.23;;;6.75;;
20725;SDS011;10524;48.132;8.518;2023-03-31T03:39:53;10.52;;;6.53;;
20725;SDS011;10524;48.132;8.518;2023-03-31T03:42:18;12.50;;;6.75;;
20725;SDS011;10524;48.132;8.518;2023-03-31T03:44:44;16.13;;;7.53;;
20725;SDS011;10524;48.132;8.518;2023-03-31T03:47:10;12.27;;;7.65;;
20725;SDS011;10524;48.132;8.518;2023-03-31T03:49:35;13.45;;;7.38;;
20725;SDS011;10524;48.132;8.518;2023-03-31T03:52:01;17.45;;;7.47;;
20725;SDS011;10524;48.132;8.518;2023-03-31T03:54:27;17.58;;;8.20;;
20725;SDS011;10524;48.132;8.518;2023-03-31T03:56:53;15.07;;;7.63;;
20725;SDS011;10524;48.132;8.518;2023-03-31T03:59:18;14.57;;;7.70;;
20725;SDS011;10524;48.132;8.518;2023-03-31T04:01:44;14.82;;;7.30;;
20725;SDS011;10524;48.132;8.518;2023-03-31T04:04:09;12.73;;;6.75;;
20725;SDS011;10524;48.132;8.518;2023-03-31T04:06:35;12.13;;;6.82;;
20725;SDS011;10524;48.132;8.518;2023-03-31T04:09:01;10.65;;;6.75;;
20725;SDS011;10524;48.132;8.518;2023-03-31T04:11:28;11.45;;;6.45;;
20725;SDS011;10524;48.132;8.518;2023-03-31T04:13:53;10.45;;;6.90;;
20725;SDS011;10524;48.132;8.518;2023-03-31T04:16:19;10.18;;;6.78;;
20725;SDS011;10524;48.132;8.518;2023-03-31T04:18:47;12.52;;;7.35;;
20725;SDS011;10524;48.132;8.518;2023-03-31T04:21:13;16.60;;;7.45;;
20725;SDS011;10524;48.132;8.518;2023-03-31T04:23:47;10.27;;;6.63;;
20725;SDS011;10524;48.132;8.518;2023-03-31T04:26:15;12.20;;;7.25;;
20725;SDS011;10524;48.132;8.518;2023-03-31T04:28:43;12.88;;;6.95;;
20725;SDS011;10524;48.132;8.518;2023-03-31T04:31:11;14.73;;;7.40;;
20725;SDS011;10524;48.132;8.518;2023-03-31T04:33:49;17.27;;;8.00;;
20725;SDS011;10524;48.132;8.518;2023-03-31T04:36:15;12.70;;;7.22;;
20725;SDS011;10524;48.132;8.518;2023-03-31T04:38:47;11.30;;;7.70;;
20725;SDS011;10524;48.132;8.518;2023-03-31T04:41:15;13.70;;;7.93;;
20725;SDS011;10524;48.132;8.518;2023-03-31T04:43:41;14.18;;;7.60;;
20725;SDS011;10524;48.132;8.518;2023-03-31T04:46:07;14.60;;;7.70;;
20725;SDS011;10524;48.132;8.518;2023-03-31T04:48:32;17.05;;;8.02;;
20725;SDS011;10524;48.132;8.518;2023-03-31T04:50:58;11.60;;;7.60;;
20725;SDS011;10524;48.132;8.518;2023-03-31T04:53:24;13.93;;;8.25;;
20725;SDS011;10524;48.132;8.518;2023-03-31T04:55:50;12.35;;;8.00;;
20725;SDS011;10524;48.132;8.518;2023-03-31T04:58:16;13.20;;;7.85;;
20725;SDS011;10524;48.132;8.518;2023-03-31T05:00:42;12.57;;;7.53;;
20725;SDS011;10524;48.132;8.518;2023-03-31T05:03:07;14.20;;;8.23;;
20725;SDS011;10524;48.132;8.518;2023-03-31T05:05:33;15.73;;;8.55;;
20725;SDS011;10524;48.132;8.518;2023-03-31T05:08:00;15.48;;;8.50;;
20725;SDS011;10524;48.132;8.518;2023-03-31T05:10:26;18.38;;;8.38;;
20725;SDS011;10524;48.132;8.518;2023-03-31T05:12:51;12.35;;;8.27;;
20725;SDS011;10524;48.132;8.518;2023-03-31T05:15:17;18.92;;;9.13;;
20725;SDS011;10524;48.132;8.518;2023-03-31T05:17:43;16.17;;;8.93;;
20725;SDS011;10524;48.132;8.518;2023-03-31T05:20:09;16.33;;;9.07;;
20725;SDS011;10524;48.132;8.518;2023-03-31T05:22:36;13.43;;;9.00;;
20725;SDS011;10524;48.132;8.518;2023-03-31T05:25:02;16.70;;;9.40;;
20725;SDS011;10524;48.132;8.518;2023-03-31T05:27:30;14.20;;;8.65;;
20725;SDS011;10524;48.132;8.518;2023-03-31T05:29:56;15.95;;;9.35;;
20725;SDS011;10524;48.132;8.518;2023-03-31T05:32:22;19.50;;;9.85;;
20725;SDS011;10524;48.132;8.518;2023-03-31T05:34:48;19.38;;;9.25;;
20725;SDS011;10524;48.132;8.518;2023-03-31T05:37:16;16.85;;;9.77;;
20725;SDS011;10524;48.132;8.518;2023-03-31T05:39:45;15.73;;;9.00;;
20725;SDS011;10524;48.132;8.518;2023-03-31T05:42:10;17.30;;;9.73;;
20725;SDS011;10524;48.132;8.518;2023-03-31T05:44:36;13.77;;;9.40;;
20725;SDS011;10524;48.132;8.518;2023-03-31T05:47:02;18.33;;;9.82;;
20725;SDS011;10524;48.132;8.518;2023-03-31T05:49:28;13.57;;;9.13;;
20725;SDS011;10524;48.132;8.518;2023-03-31T05:51:53;19.27;;;9.90;;
20725;SDS011;10524;48.132;8.518;2023-03-31T05:54:20;18.73;;;9.90;;
20725;SDS011;10524;48.132;8.518;2023-03-31T05:56:46;16.75;;;9.60;;
20725;SDS011;10524;48.132;8.518;2023-03-31T05:59:12;17.35;;;10.15;;
20725;SDS011;10524;48.132;8.518;2023-03-31T06:01:38;18.60;;;10.35;;
20725;SDS011;10524;48.132;8.518;2023-03-31T06:04:03;18.77;;;10.15;;
20725;SDS011;10524;48.132;8.518;2023-03-31T06:06:29;19.77;;;10.52;;
20725;SDS011;10524;48.132;8.518;2023-03-31T06:08:57;22.27;;;11.52;;
20725;SDS011;10524;48.132;8.518;2023-03-31T06:11:22;22.02;;;12.43;;
20725;SDS011;10524;48.132;8.518;2023-03-31T06:13:48;17.17;;;11.38;;
20725;SDS011;10524;48.132;8.518;2023-03-31T06:16:14;18.42;;;11.07;;
20725;SDS011;10524;48.132;8.518;2023-03-31T06:18:41;18.38;;;11.60;;
20725;SDS011;10524;48.132;8.518;2023-03-31T06:21:07;19.52;;;11.68;;
20725;SDS011;10524;48.132;8.518;2023-03-31T06:23:40;19.40;;;11.60;;
20725;SDS011;10524;48.132;8.518;2023-03-31T06:26:10;20.75;;;11.05;;
20725;SDS011;10524;48.132;8.518;2023-03-31T06:28:37;15.75;;;9.63;;
20725;SDS011;10524;48.132;8.518;2023-03-31T06:31:06;14.13;;;9.30;;
20725;SDS011;10524;48.132;8.518;2023-03-31T06:33:34;14.85;;;8.20;;
20725;SDS011;10524;48.132;8.518;2023-03-31T06:35:59;19.85;;;7.70;;
20725;SDS011;10524;48.132;8.518;2023-03-31T06:38:28;6.47;;;4.82;;
20725;SDS011;10524;48.132;8.518;2023-03-31T06:40:53;4.88;;;2.70;;
20725;SDS011;10524;48.132;8.518;2023-03-31T06:43:19;1.75;;;1.20;;
20725;SDS011;10524;48.132;8.518;2023-03-31T06:45:45;2.70;;;1.50;;
20725;SDS011;10524;48.132;8.518;2023-03-31T06:48:11;1.13;;;1.00;;
20725;SDS011;10524;48.132;8.518;2023-03-31T06:50:38;2.97;;;1.20;;
20725;SDS011;10524;48.132;8.518;2023-03-31T06:53:05;1.42;;;0.80;;
20725;SDS011;10524;48.132;8.518;2023-03-31T06:55:30;1.98;;;0.90;;
20725;SDS011;10524;48.132;8.518;2023-03-31T06:57:57;2.10;;;0.70;;
20725;SDS011;10524;48.132;8.518;2023-03-31T07:00:23;1.67;;;0.70;;
20725;SDS011;10524;48.132;8.518;2023-03-31T07:02:51;1.02;;;0.68;;
20725;SDS011;10524;48.132;8.518;2023-03-31T07:05:17;0.93;;;0.70;;
20725;SDS011;10524;48.132;8.518;2023-03-31T07:07:44;0.95;;;0.70;;
20725;SDS011;10524;48.132;8.518;2023-03-31T07:10:10;0.80;;;0.80;;
20725;SDS011;10524;48.132;8.518;2023-03-31T07:12:35;1.60;;;0.80;;
20725;SDS011;10524;48.132;8.518;2023-03-31T07:15:01;2.30;;;0.80;;
20725;SDS011;10524;48.132;8.518;2023-03-31T07:17:27;1.30;;;0.80;;
20725;SDS011;10524;48.132;8.518;2023-03-31T07:19:53;1.35;;;1.00;;
20725;SDS011;10524;48.132;8.518;2023-03-31T07:22:18;1.42;;;0.90;;
20725;SDS011;10524;48.132;8.518;2023-03-31T07:24:44;1.95;;;1.15;;
20725;SDS011;10524;48.132;8.518;2023-03-31T07:27:10;1.63;;;0.90;;
20725;SDS011;10524;48.132;8.518;2023-03-31T07:29:35;0.95;;;0.90;;
20725;SDS011;10524;48.132;8.518;2023-03-31T07:32:01;1.92;;;0.93;;
20725;SDS011;10524;48.132;8.518;2023-03-31T07:34:27;1.65;;;1.08;;
20725;SDS011;10524;48.132;8.518;2023-03-31T07:36:55;1.65;;;0.98;;
20725;SDS011;10524;48.132;8.518;2023-03-31T07:39:21;1.70;;;0.75;;
20725;SDS011;10524;48.132;8.518;2023-03-31T07:41:47;3.95;;;0.70;;
20725;SDS011;10524;48.132;8.518;2023-03-31T07:44:12;1.98;;;0.73;;
20725;SDS011;10524;48.132;8.518;2023-03-31T07:46:39;1.02;;;0.80;;
20725;SDS011;10524;48.132;8.518;2023-03-31T07:49:05;1.25;;;0.60;;
20725;SDS011;10524;48.132;8.518;2023-03-31T07:51:31;1.48;;;0.60;;
20725;SDS011;10524;48.132;8.518;2023-03-31T07:53:58;1.27;;;0.85;;
20725;SDS011;10524;48.132;8.518;2023-03-31T07:56:23;1.60;;;0.70;;
20725;SDS011;10524;48.132;8.518;2023-03-31T07:58:49;1.75;;;0.60;;
20725;SDS011;10524;48.132;8.518;2023-03-31T08:01:19;1.63;;;0.77;;
20725;SDS011;10524;48.132;8.518;2023-03-31T08:03:46;2.25;;;0.75;;
20725;SDS011;10524;48.132;8.518;2023-03-31T08:06:18;0.80;;;0.60;;
20725;SDS011;10524;48.132;8.518;2023-03-31T08:08:46;0.90;;;0.60;;
20725;SDS011;10524;48.132;8.518;2023-03-31T08:11:15;1.83;;;0.70;;
20725;SDS011;10524;48.132;8.518;2023-03-31T08:13:41;3.28;;;0.90;;
20725;SDS011;10524;48.132;8.518;2023-03-31T08:16:07;3.83;;;0.93;;
20725;SDS011;10524;48.132;8.518;2023-03-31T08:18:33;2.35;;;0.73;;
20725;SDS011;10524;48.132;8.518;2023-03-31T08:20:58;2.33;;;0.90;;
20725;SDS011;10524;48.132;8.518;2023-03-31T08:23:24;1.67;;;0.95;;
20725;SDS011;10524;48.132;8.518;2023-03-31T08:25:50;2.95;;;0.90;;
20725;SDS011;10524;48.132;8.518;2023-03-31T08:28:16;1.85;;;0.98;;
20725;SDS011;10524;48.132;8.518;2023-03-31T08:30:42;2.40;;;1.10;;
20725;SDS011;10524;48.132;8.518;2023-03-31T08:33:08;2.38;;;1.08;;
20725;SDS011;10524;48.132;8.518;2023-03-31T08:35:36;2.88;;;1.20;;
20725;SDS011;10524;48.132;8.518;2023-03-31T08:38:02;3.97;;;1.33;;
20725;SDS011;10524;48.132;8.518;2023-03-31T08:40:28;4.65;;;1.67;;
20725;SDS011;10524;48.132;8.518;2023-03-31T08:42:56;3.25;;;1.20;;
20725;SDS011;10524;48.132;8.518;2023-03-31T08:45:35;4.50;;;1.20;;
20725;SDS011;10524;48.132;8.518;2023-03-31T08:48:06;3.10;;;1.05;;
20725;SDS011;10524;48.132;8.518;2023-03-31T08:50:49;2.70;;;1.00;;
20725;SDS011;10524;48.132;8.518;2023-03-31T08:55:55;6.30;;;1.33;;
20725;SDS011;10524;48.132;8.518;2023-03-31T08:58:27;5.22;;;1.30;;
20725;SDS011;10524;48.132;8.518;2023-03-31T09:04:04;2.63;;;1.00;;
20725;SDS011;10524;48.132;8.518;2023-03-31T09:06:56;5.60;;;1.30;;
20725;SDS011;10524;48.132;8.518;2023-03-31T09:09:42;8.98;;;1.67;;
20725;SDS011;10524;48.132;8.518;2023-03-31T09:12:22;3.63;;;1.10;;
20725;SDS011;10524;48.132;8.518;2023-03-31T09:15:01;3.67;;;1.27;;
20725;SDS011;10524;48.132;8.518;2023-03-31T09:17:33;3.28;;;1.13;;
20725;SDS011;10524;48.132;8.518;2023-03-31T09:20:14;4.38;;;1.40;;
20725;SDS011;10524;48.132;8.518;2023-03-31T09:25:32;5.63;;;1.30;;
20725;SDS011;10524;48.132;8.518;2023-03-31T09:28:02;4.88;;;1.17;;
20725;SDS011;10524;48.132;8.518;2023-03-31T09:30:33;5.55;;;1.40;;
20725;SDS011;10524;48.132;8.518;2023-03-31T09:33:13;6.38;;;1.98;;
20725;SDS011;10524;48.132;8.518;2023-03-31T09:35:51;5.20;;;1.40;;
20725;SDS011;10524;48.132;8.518;2023-03-31T09:40:52;3.55;;;1.08;;
20725;SDS011;10524;48.132;8.518;2023-03-31T09:43:20;3.20;;;1.20;;
20725;SDS011;10524;48.132;8.518;2023-03-31T09:45:48;4.72;;;1.20;;
20725;SDS011;10524;48.132;8.518;2023-03-31T09:48:17;6.70;;;1.52;;
20725;SDS011;10524;48.132;8.518;2023-03-31T09:50:56;5.77;;;1.50;;
20725;SDS011;10524;48.132;8.518;2023-03-31T09:53:37;4.30;;;1.33;;
20725;SDS011;10524;48.132;8.518;2023-03-31T09:58:42;2.63;;;1.20;;
20725;SDS011;10524;48.132;8.518;2023-03-31T10:01:10;3.10;;;1.20;;
20725;SDS011;10524;48.132;8.518;2023-03-31T10:03:50;3.38;;;1.30;;
20725;SDS011;10524;48.132;8.518;2023-03-31T10:06:18;4.32;;;1.15;;
20725;SDS011;10524;48.132;8.518;2023-03-31T10:08:48;4.78;;;1.00;;
20725;SDS011;10524;48.132;8.518;2023-03-31T10:11:21;4.20;;;1.20;;
20725;SDS011;10524;48.132;8.518;2023-03-31T10:18:53;7.68;;;1.33;;
20725;SDS011;10524;48.132;8.518;2023-03-31T10:21:23;3.53;;;1.38;;
20725;SDS011;10524;48.132;8.518;2023-03-31T10:23:50;4.10;;;1.40;;
20725;SDS011;10524;48.132;8.518;2023-03-31T10:26:18;7.00;;;1.73;;
20725;SDS011;10524;48.132;8.518;2023-03-31T10:28:50;4.40;;;1.50;;
20725;SDS011;10524;48.132;8.518;2023-03-31T10:31:17;7.47;;;1.77;;
20725;SDS011;10524;48.132;8.518;2023-03-31T10:33:45;3.97;;;1.80;;
20725;SDS011;10524;48.132;8.518;2023-03-31T10:36:15;4.97;;;1.60;;
20725;SDS011;10524;48.132;8.518;2023-03-31T10:38:48;5.88;;;1.48;;
20725;SDS011;10524;48.132;8.518;2023-03-31T10:41:17;4.32;;;1.40;;
20725;SDS011;10524;48.132;8.518;2023-03-31T10:43:49;4.53;;;1.40;;
20725;SDS011;10524;48.132;8.518;2023-03-31T10:46:17;5.97;;;1.40;;
20725;SDS011;10524;48.132;8.518;2023-03-31T10:48:43;4.13;;;1.40;;
20725;SDS011;10524;48.132;8.518;2023-03-31T10:51:17;5.88;;;1.90;;
20725;SDS011;10524;48.132;8.518;2023-03-31T10:53:51;5.43;;;1.60;;
20725;SDS011;10524;48.132;8.518;2023-03-31T11:12:37;5.00;;;1.48;;
20725;SDS011;10524;48.132;8.518;2023-03-31T11:17:57;3.17;;;1.15;;
20725;SDS011;10524;48.132;8.518;2023-03-31T11:29:13;2.15;;;0.90;;
20725;SDS011;10524;48.132;8.518;2023-03-31T11:32:05;2.80;;;0.85;;
20725;SDS011;10524;48.132;8.518;2023-03-31T11:45:22;1.27;;;0.70;;
20725;SDS011;10524;48.132;8.518;2023-03-31T11:47:54;4.88;;;0.82;;
20725;SDS011;10524;48.132;8.518;2023-03-31T11:50:25;1.70;;;0.50;;
20725;SDS011;10524;48.132;8.518;2023-03-31T11:52:59;2.38;;;0.63;;
20725;SDS011;10524;48.132;8.518;2023-03-31T11:55:29;2.95;;;0.70;;
20725;SDS011;10524;48.132;8.518;2023-03-31T11:58:03;2.38;;;0.70;;
20725;SDS011;10524;48.132;8.518;2023-03-31T12:00:43;1.35;;;0.70;;
20725;SDS011;10524;48.132;8.518;2023-03-31T12:06:03;4.80;;;1.10;;
20725;SDS011;10524;48.132;8.518;2023-03-31T12:08:45;3.95;;;1.13;;
20725;SDS011;10524;48.132;8.518;2023-03-31T12:11:43;4.28;;;0.85;;
20725;SDS011;10524;48.132;8.518;2023-03-31T12:14:17;4.28;;;1.20;;
20725;SDS011;10524;48.132;8.518;2023-03-31T12:16:54;5.35;;;1.10;;
20725;SDS011;10524;48.132;8.518;2023-03-31T12:22:03;3.83;;;1.23;;
20725;SDS011;10524;48.132;8.518;2023-03-31T12:24:36;7.38;;;1.73;;
20725;SDS011;10524;48.132;8.518;2023-03-31T12:27:05;4.68;;;1.58;;
20725;SDS011;10524;48.132;8.518;2023-03-31T12:29:50;2.78;;;1.00;;
20725;SDS011;10524;48.132;8.518;2023-03-31T12:32:33;3.38;;;0.60;;
20725;SDS011;10524;48.132;8.518;2023-03-31T12:35:15;2.83;;;0.93;;
20725;SDS011;10524;48.132;8.518;2023-03-31T12:38:01;4.45;;;2.40;;
20725;SDS011;10524;48.132;8.518;2023-03-31T12:52:06;1.23;;;0.60;;
20725;SDS011;10524;48.132;8.518;2023-03-31T12:57:35;3.00;;;1.40;;
20725;SDS011;10524;48.132;8.518;2023-03-31T13:02:41;4.18;;;1.00;;
20725;SDS011;10524;48.132;8.518;2023-03-31T13:08:04;1.92;;;0.93;;
20725;SDS011;10524;48.132;8.518;2023-03-31T13:10:32;4.35;;;1.75;;
20725;SDS011;10524;48.132;8.518;2023-03-31T13:13:16;4.18;;;1.38;;
20725;SDS011;10524;48.132;8.518;2023-03-31T13:15:51;6.75;;;4.75;;
20725;SDS011;10524;48.132;8.518;2023-03-31T13:18:22;6.30;;;2.30;;
20725;SDS011;10524;48.132;8.518;2023-03-31T13:21:01;5.47;;;1.40;;
20725;SDS011;10524;48.132;8.518;2023-03-31T13:23:30;6.03;;;4.00;;
20725;SDS011;10524;48.132;8.518;2023-03-31T13:25:59;3.95;;;1.20;;
20725;SDS011;10524;48.132;8.518;2023-03-31T13:34:58;3.15;;;1.08;;
20725;SDS011;10524;48.132;8.518;2023-03-31T13:40:07;5.28;;;1.33;;
20725;SDS011;10524;48.132;8.518;2023-03-31T14:10:48;5.10;;;1.33;;
20725;SDS011;10524;48.132;8.518;2023-03-31T14:13:15;5.82;;;1.67;;
20725;SDS011;10524;48.132;8.518;2023-03-31T14:15:45;3.50;;;1.70;;
20725;SDS011;10524;48.132;8.518;2023-03-31T14:18:23;3.17;;;0.90;;
20725;SDS011;10524;48.132;8.518;2023-03-31T14:29:47;1.90;;;0.82;;
20725;SDS011;10524;48.132;8.518;2023-03-31T14:35:32;0.95;;;0.75;;
20725;SDS011;10524;48.132;8.518;2023-03-31T14:38:08;1.30;;;0.60;;
20725;SDS011;10524;48.132;8.518;2023-03-31T14:40:43;3.65;;;1.33;;
20725;SDS011;10524;48.132;8.518;2023-03-31T14:43:21;0.52;;;0.40;;
20725;SDS011;10524;48.132;8.518;2023-03-31T14:46:03;1.38;;;1.27;;
20725;SDS011;10524;48.132;8.518;2023-03-31T14:48:32;1.65;;;1.25;;
20725;SDS011;10524;48.132;8.518;2023-03-31T14:51:00;1.20;;;0.55;;
20725;SDS011;10524;48.132;8.518;2023-03-31T14:53:27;0.57;;;0.40;;
20725;SDS011;10524;48.132;8.518;2023-03-31T14:55:58;1.77;;;0.60;;
20725;SDS011;10524;48.132;8.518;2023-03-31T14:58:34;2.08;;;0.60;;
20725;SDS011;10524;48.132;8.518;2023-03-31T15:01:03;2.03;;;0.55;;
20725;SDS011;10524;48.132;8.518;2023-03-31T15:03:32;1.35;;;0.65;;
20725;SDS011;10524;48.132;8.518;2023-03-31T15:05:59;0.90;;;0.52;;
20725;SDS011;10524;48.132;8.518;2023-03-31T15:08:27;1.65;;;0.65;;
20725;SDS011;10524;48.132;8.518;2023-03-31T15:10:56;1.73;;;0.50;;
20725;SDS011;10524;48.132;8.518;2023-03-31T15:13:34;1.20;;;0.55;;
20725;SDS011;10524;48.132;8.518;2023-03-31T15:18:59;1.95;;;0.80;;
20725;SDS011;10524;48.132;8.518;2023-03-31T15:21:30;1.48;;;0.60;;
20725;SDS011;10524;48.132;8.518;2023-03-31T15:23:58;1.38;;;0.70;;
20725;SDS011;10524;48.132;8.518;2023-03-31T15:26:25;6.30;;;2.88;;
20725;SDS011;10524;48.132;8.518;2023-03-31T15:29:10;3.22;;;1.23;;
20725;SDS011;10524;48.132;8.518;2023-03-31T15:31:48;5.13;;;1.15;;
20725;SDS011;10524;48.132;8.518;2023-03-31T15:34:16;4.70;;;2.15;;
20725;SDS011;10524;48.132;8.518;2023-03-31T15:36:55;3.88;;;1.42;;
20725;SDS011;10524;48.132;8.518;2023-03-31T15:39:22;4.22;;;0.90;;
20725;SDS011;10524;48.132;8.518;2023-03-31T15:41:49;3.47;;;0.93;;
20725;SDS011;10524;48.132;8.518;2023-03-31T15:47:17;3.85;;;1.02;;
20725;SDS011;10524;48.132;8.518;2023-03-31T15:49:47;4.55;;;1.00;;
20725;SDS011;10524;48.132;8.518;2023-03-31T15:52:28;4.13;;;1.00;;
20725;SDS011;10524;48.132;8.518;2023-03-31T15:55:22;2.23;;;0.80;;
20725;SDS011;10524;48.132;8.518;2023-03-31T15:57:48;2.03;;;0.80;;
20725;SDS011;10524;48.132;8.518;2023-03-31T16:02:56;3.10;;;0.95;;
20725;SDS011;10524;48.132;8.518;2023-03-31T16:08:14;2.17;;;0.80;;
20725;SDS011;10524;48.132;8.518;2023-03-31T16:10:45;5.65;;;0.90;;
20725;SDS011;10524;48.132;8.518;2023-03-31T16:13:15;2.90;;;1.17;;
20725;SDS011;10524;48.132;8.518;2023-03-31T16:15:48;7.00;;;1.60;;
20725;SDS011;10524;48.132;8.518;2023-03-31T16:18:17;4.57;;;1.65;;
20725;SDS011;10524;48.132;8.518;2023-03-31T16:20:52;3.22;;;1.17;;
20725;SDS011;10524;48.132;8.518;2023-03-31T16:23:22;5.25;;;2.30;;
20725;SDS011;10524;48.132;8.518;2023-03-31T16:25:50;2.72;;;0.77;;
20725;SDS011;10524;48.132;8.518;2023-03-31T16:28:17;3.63;;;0.93;;
20725;SDS011;10524;48.132;8.518;2023-03-31T16:30:49;1.42;;;0.70;;
20725;SDS011;10524;48.132;8.518;2023-03-31T16:33:15;4.18;;;0.80;;
20725;SDS011;10524;48.132;8.518;2023-03-31T16:35:45;2.90;;;0.98;;
20725;SDS011;10524;48.132;8.518;2023-03-31T16:38:15;4.35;;;1.85;;
20725;SDS011;10524;48.132;8.518;2023-03-31T16:40:42;4.80;;;1.48;;
20725;SDS011;10524;48.132;8.518;2023-03-31T16:43:11;3.78;;;1.00;;
20725;SDS011;10524;48.132;8.518;2023-03-31T16:45:45;3.70;;;1.10;;
20725;SDS011;10524;48.132;8.518;2023-03-31T16:48:15;2.03;;;0.65;;
20725;SDS011;10524;48.132;8.518;2023-03-31T16:50:46;3.45;;;0.93;;
20725;SDS011;10524;48.132;8.518;2023-03-31T16:53:14;2.63;;;0.90;;
20725;SDS011;10524;48.132;8.518;2023-03-31T16:55:42;2.97;;;1.05;;
20725;SDS011;10524;48.132;8.518;2023-03-31T16:58:08;3.63;;;1.00;;
20725;SDS011;10524;48.132;8.518;2023-03-31T17:00:35;3.60;;;1.23;;
20725;SDS011;10524;48.132;8.518;2023-03-31T17:03:04;5.53;;;2.65;;
20725;SDS011;10524;48.132;8.518;2023-03-31T17:05:31;4.47;;;1.45;;
20725;SDS011;10524;48.132;8.518;2023-03-31T17:08:06;2.17;;;1.10;;
20725;SDS011;10524;48.132;8.518;2023-03-31T17:10:33;2.00;;;1.00;;
20725;SDS011;10524;48.132;8.518;2023-03-31T17:12:59;3.53;;;0.80;;
20725;SDS011;10524;48.132;8.518;2023-03-31T17:15:25;5.93;;;1.30;;
20725;SDS011;10524;48.132;8.518;2023-03-31T17:17:50;2.97;;;0.90;;
20725;SDS011;10524;48.132;8.518;2023-03-31T17:20:16;2.80;;;0.93;;
20725;SDS011;10524;48.132;8.518;2023-03-31T17:22:42;3.97;;;1.00;;
20725;SDS011;10524;48.132;8.518;2023-03-31T17:25:08;6.70;;;0.93;;
20725;SDS011;10524;48.132;8.518;2023-03-31T17:27:34;4.38;;;1.15;;
20725;SDS011;10524;48.132;8.518;2023-03-31T17:29:59;4.07;;;1.05;;
20725;SDS011;10524;48.132;8.518;2023-03-31T17:32:25;6.50;;;1.88;;
20725;SDS011;10524;48.132;8.518;2023-03-31T17:34:51;5.78;;;1.30;;
20725;SDS011;10524;48.132;8.518;2023-03-31T17:37:17;7.65;;;2.20;;
20725;SDS011;10524;48.132;8.518;2023-03-31T17:39:44;5.90;;;1.70;;
20725;SDS011;10524;48.132;8.518;2023-03-31T17:42:10;6.45;;;1.88;;
20725;SDS011;10524;48.132;8.518;2023-03-31T17:44:40;6.57;;;1.67;;
20725;SDS011;10524;48.132;8.518;2023-03-31T17:47:06;18.30;;;3.60;;
20725;SDS011;10524;48.132;8.518;2023-03-31T17:49:32;10.55;;;2.38;;
20725;SDS011;10524;48.132;8.518;2023-03-31T17:51:58;7.70;;;2.28;;
20725;SDS011;10524;48.132;8.518;2023-03-31T17:54:24;8.43;;;1.88;;
20725;SDS011;10524;48.132;8.518;2023-03-31T17:56:50;8.20;;;1.95;;
20725;SDS011;10524;48.132;8.518;2023-03-31T17:59:17;11.18;;;3.10;;
20725;SDS011;10524;48.132;8.518;2023-03-31T18:01:43;5.32;;;1.70;;
20725;SDS011;10524;48.132;8.518;2023-03-31T18:04:10;4.95;;;1.80;;
20725;SDS011;10524;48.132;8.518;2023-03-31T18:06:37;6.35;;;1.85;;